Time;durP1;ratioP1;P1;durP2;ratioP2;P2;SDS_P1;SDS_P2;PMS_P1;PMS_P2;Temp;Humidity;BMP_temperature;BMP_pressure;BME280_temperature;BME280_humidity;BME280_pressure;Samples;Min_cycle;Max_cycle;Signal;HPM_P1;HPM_P2
2021/10/14 00:02:17;;;;;;;5.25;2.28;;;12.00;99.90;;;;;;5024844;28;20022;-61
2021/10/14 00:04:43;;;;;;;7.10;2.40;;;12.00;99.90;;;;;;5020577;28;20045;-61
2021/10/14 00:07:08;;;;;;;13.23;2.35;;;12.10;99.90;;;;;;5021076;28;20034;-62
2021/10/14 00:09:34;;;;;;;4.40;2.05;;;12.00;99.90;;;;;;5023157;28;20030;-62
2021/10/14 00:11:59;;;;;;;10.02;2.45;;;12.00;99.90;;;;;;5022430;28;20052;-61
2021/10/14 00:14:25;;;;;;;6.47;2.15;;;12.00;99.90;;;;;;5021716;28;20042;-64
2021/10/14 00:16:52;;;;;;;9.60;2.90;;;12.00;99.90;;;;;;5006711;28;20038;-63
2021/10/14 00:19:18;;;;;;;8.57;2.22;;;12.10;99.90;;;;;;5023529;28;20576;-61
2021/10/14 00:21:43;;;;;;;4.32;1.85;;;12.10;99.90;;;;;;5020356;28;20121;-62
2021/10/14 00:24:09;;;;;;;3.78;1.80;;;12.10;99.90;;;;;;5023883;28;20063;-63
2021/10/14 00:26:36;;;;;;;11.63;2.70;;;12.00;99.90;;;;;;5021172;28;20406;-62
2021/10/14 00:29:02;;;;;;;6.93;2.85;;;12.00;99.90;;;;;;5019866;28;20100;-61
2021/10/14 00:31:27;;;;;;;5.43;2.22;;;12.00;99.90;;;;;;5021727;28;20045;-61
2021/10/14 00:33:54;;;;;;;6.78;2.72;;;12.00;99.90;;;;;;5021446;28;20033;-62
2021/10/14 00:36:21;;;;;;;6.68;2.70;;;12.00;99.90;;;;;;5023454;28;20056;-61
2021/10/14 00:38:46;;;;;;;10.93;3.45;;;12.00;99.90;;;;;;5019983;28;20072;-61
2021/10/14 00:41:14;;;;;;;7.78;3.20;;;12.00;99.90;;;;;;5024023;28;20026;-61
2021/10/14 00:43:40;;;;;;;8.90;3.38;;;12.00;99.90;;;;;;5019986;28;20133;-63
2021/10/14 00:46:16;;;;;;;7.72;3.45;;;12.00;99.90;;;;;;5020392;28;20030;-62
2021/10/14 00:48:42;;;;;;;13.00;4.32;;;12.00;99.90;;;;;;5019100;28;20504;-62
2021/10/14 00:51:07;;;;;;;7.22;3.00;;;12.10;99.90;;;;;;5019730;28;20041;-61
2021/10/14 00:53:36;;;;;;;10.18;3.08;;;12.10;99.90;;;;;;5021000;28;20501;-62
2021/10/14 00:56:03;;;;;;;8.20;3.65;;;12.20;99.90;;;;;;5022783;28;20026;-63
2021/10/14 00:58:28;;;;;;;9.25;4.00;;;12.20;99.90;;;;;;5021366;28;20067;-63
2021/10/14 01:00:54;;;;;;;10.18;3.47;;;12.10;99.90;;;;;;5021070;28;20050;-61
2021/10/14 01:03:19;;;;;;;10.15;4.50;;;12.20;99.90;;;;;;5022627;28;20037;-62
2021/10/14 01:05:45;;;;;;;12.00;4.30;;;12.10;99.90;;;;;;5020054;28;20682;-62
2021/10/14 01:08:11;;;;;;;10.35;3.80;;;12.20;99.90;;;;;;5027744;28;20527;-63
2021/10/14 01:10:36;;;;;;;8.82;4.40;;;12.20;99.90;;;;;;5019293;28;20042;-62
2021/10/14 01:13:02;;;;;;;12.45;5.00;;;12.20;99.90;;;;;;5023093;28;20045;-62
2021/10/14 01:15:28;;;;;;;11.50;4.57;;;12.30;99.90;;;;;;5018741;28;20601;-62
2021/10/14 01:17:55;;;;;;;12.05;4.55;;;12.30;99.90;;;;;;5023325;28;20030;-62
2021/10/14 01:20:21;;;;;;;11.75;5.03;;;12.30;99.90;;;;;;5001258;28;20482;-61
2021/10/14 01:22:47;;;;;;;10.68;4.82;;;12.30;99.90;;;;;;5022465;28;20092;-61
2021/10/14 01:25:12;;;;;;;11.20;4.70;;;12.30;99.90;;;;;;5022960;28;20080;-61
2021/10/14 01:27:38;;;;;;;15.38;5.97;;;12.30;99.90;;;;;;5021074;28;20046;-63
2021/10/14 01:30:05;;;;;;;12.35;5.40;;;12.40;99.90;;;;;;5018890;28;20042;-61
2021/10/14 01:32:32;;;;;;;12.63;5.10;;;12.40;99.90;;;;;;5021674;28;20073;-63
2021/10/14 01:34:57;;;;;;;18.40;5.85;;;12.40;99.90;;;;;;5022844;28;20092;-62
2021/10/14 01:37:23;;;;;;;10.45;5.22;;;12.30;99.90;;;;;;5021260;28;20038;-62
2021/10/14 01:39:48;;;;;;;13.80;6.40;;;12.40;99.90;;;;;;5019679;28;20029;-62
2021/10/14 01:42:14;;;;;;;12.48;5.80;;;12.40;99.90;;;;;;5022362;28;20029;-62
2021/10/14 01:44:39;;;;;;;13.93;6.20;;;12.40;99.90;;;;;;5018530;28;20034;-62
2021/10/14 01:47:05;;;;;;;13.63;6.43;;;12.40;99.90;;;;;;5019561;28;20030;-62
2021/10/14 01:49:31;;;;;;;14.57;6.22;;;12.40;99.90;;;;;;5021291;28;20057;-64
2021/10/14 01:51:56;;;;;;;15.18;5.72;;;12.40;99.90;;;;;;5020495;28;20056;-63
2021/10/14 01:54:22;;;;;;;11.82;6.07;;;12.40;99.90;;;;;;5020721;28;20060;-62
2021/10/14 01:56:47;;;;;;;18.55;6.63;;;12.40;99.90;;;;;;5021303;28;20564;-62
2021/10/14 01:59:13;;;;;;;16.65;6.65;;;12.40;99.90;;;;;;5019059;28;20041;-62
2021/10/14 02:01:38;;;;;;;15.68;6.28;;;12.40;99.90;;;;;;5004199;28;20084;-62
2021/10/14 02:04:04;;;;;;;16.92;7.07;;;12.40;99.90;;;;;;5018648;28;20073;-62
2021/10/14 02:06:29;;;;;;;15.68;7.18;;;12.40;99.90;;;;;;5022151;28;20044;-62
2021/10/14 02:08:55;;;;;;;14.60;6.50;;;12.40;99.90;;;;;;5019888;28;20481;-62
2021/10/14 02:11:22;;;;;;;16.77;6.70;;;12.40;99.90;;;;;;5019323;28;20188;-62
2021/10/14 02:13:47;;;;;;;17.70;7.43;;;12.40;99.90;;;;;;5020081;28;20030;-62
2021/10/14 02:16:13;;;;;;;18.67;7.10;;;12.40;99.90;;;;;;5019058;28;20030;-62
2021/10/14 02:18:39;;;;;;;19.33;7.38;;;12.40;99.90;;;;;;5021280;28;20037;-61
2021/10/14 02:21:04;;;;;;;20.25;7.20;;;12.40;99.90;;;;;;5021752;28;20060;-63
2021/10/14 02:23:30;;;;;;;15.57;7.03;;;12.40;99.90;;;;;;5018367;28;20041;-61
2021/10/14 02:25:55;;;;;;;20.55;8.25;;;12.40;99.90;;;;;;5020457;28;20124;-62
2021/10/14 02:28:21;;;;;;;16.35;7.57;;;12.40;99.90;;;;;;5019537;28;20053;-62
2021/10/14 02:30:46;;;;;;;20.38;8.18;;;12.40;99.90;;;;;;5021046;28;20051;-62
2021/10/14 02:33:13;;;;;;;17.35;7.78;;;12.40;99.90;;;;;;5021022;28;20038;-62
2021/10/14 02:35:39;;;;;;;20.95;7.07;;;12.40;99.90;;;;;;5017892;28;20033;-62
2021/10/14 02:38:05;;;;;;;18.83;7.20;;;12.40;99.90;;;;;;5021510;28;20039;-61
2021/10/14 02:40:30;;;;;;;18.35;7.70;;;12.50;99.90;;;;;;5020877;28;20032;-62
2021/10/14 02:42:56;;;;;;;19.00;7.53;;;12.50;99.90;;;;;;5021377;28;20386;-63
2021/10/14 02:45:21;;;;;;;21.98;7.60;;;12.50;99.90;;;;;;5018928;28;20033;-62
2021/10/14 02:47:47;;;;;;;24.00;8.10;;;12.50;99.90;;;;;;5017775;28;20109;-62
2021/10/14 02:50:13;;;;;;;17.27;7.10;;;12.50;99.90;;;;;;5019900;28;20030;-62
2021/10/14 02:52:40;;;;;;;21.10;7.07;;;12.50;99.90;;;;;;5017589;28;20120;-61
2021/10/14 02:55:05;;;;;;;22.98;7.80;;;12.50;99.90;;;;;;5021310;28;20080;-62
2021/10/14 02:57:31;;;;;;;23.92;8.75;;;12.40;99.90;;;;;;5017233;28;20510;-61
2021/10/14 02:59:57;;;;;;;20.35;8.48;;;12.40;99.90;;;;;;5017624;28;20041;-61
2021/10/14 03:02:22;;;;;;;18.02;6.82;;;12.40;99.90;;;;;;5017852;28;20037;-63
2021/10/14 03:04:48;;;;;;;22.95;8.65;;;12.50;99.90;;;;;;5018780;28;20029;-61
2021/10/14 03:07:13;;;;;;;22.77;7.90;;;12.50;99.90;;;;;;5020032;28;20378;-61
2021/10/14 03:09:39;;;;;;;22.98;8.00;;;12.40;99.90;;;;;;5018620;28;20076;-63
2021/10/14 03:12:05;;;;;;;17.73;7.68;;;12.40;99.90;;;;;;5017481;28;20042;-61
2021/10/14 03:14:30;;;;;;;20.48;8.88;;;12.40;99.90;;;;;;5020463;28;20029;-62
2021/10/14 03:16:56;;;;;;;21.08;7.95;;;12.40;99.90;;;;;;5021064;28;20458;-62
2021/10/14 03:19:22;;;;;;;23.88;8.75;;;12.40;99.90;;;;;;5018376;28;20041;-61
2021/10/14 03:21:47;;;;;;;17.17;7.65;;;12.40;99.90;;;;;;5014710;28;20033;-62
2021/10/14 03:24:13;;;;;;;17.25;6.88;;;12.40;99.90;;;;;;5023173;28;20374;-61
2021/10/14 03:26:38;;;;;;;20.92;8.02;;;12.40;99.90;;;;;;5022042;28;20437;-63
2021/10/14 03:29:04;;;;;;;19.90;7.28;;;12.50;99.90;;;;;;5025273;28;20044;-61
2021/10/14 03:31:30;;;;;;;18.73;8.00;;;12.40;99.90;;;;;;5020876;28;20516;-63
2021/10/14 03:33:56;;;;;;;20.02;7.32;;;12.40;99.90;;;;;;5024294;28;20041;-61
2021/10/14 03:36:22;;;;;;;19.67;7.57;;;12.40;99.90;;;;;;5024757;28;20034;-62
2021/10/14 03:38:47;;;;;;;14.80;6.72;;;12.40;99.90;;;;;;5022259;28;20378;-62
2021/10/14 03:41:13;;;;;;;21.65;7.85;;;12.40;99.90;;;;;;5022194;28;20037;-62
2021/10/14 03:43:39;;;;;;;20.67;8.13;;;12.40;99.90;;;;;;5024131;28;20029;-61
2021/10/14 03:46:04;;;;;;;21.38;7.07;;;12.40;99.90;;;;;;5024640;28;20021;-62
2021/10/14 03:48:30;;;;;;;17.70;7.13;;;12.40;99.90;;;;;;5023875;28;20465;-61
2021/10/14 03:50:55;;;;;;;20.73;8.10;;;12.40;99.90;;;;;;5021238;28;20058;-62
2021/10/14 03:53:21;;;;;;;27.42;9.18;;;12.40;99.90;;;;;;5019402;28;20034;-62
2021/10/14 03:55:47;;;;;;;19.23;8.45;;;12.40;99.90;;;;;;5021907;28;20038;-62
2021/10/14 03:58:12;;;;;;;19.08;7.43;;;12.40;99.90;;;;;;5020857;28;20041;-63
2021/10/14 04:00:38;;;;;;;27.60;9.30;;;12.40;99.90;;;;;;5021205;28;20041;-62
2021/10/14 04:03:04;;;;;;;22.83;7.55;;;12.30;99.90;;;;;;5024310;28;20501;-62
2021/10/14 04:05:29;;;;;;;28.42;9.38;;;12.30;99.90;;;;;;5023830;28;20041;-62
2021/10/14 04:07:55;;;;;;;23.35;8.75;;;12.30;99.90;;;;;;5002468;28;20038;-62
2021/10/14 04:10:20;;;;;;;23.30;8.13;;;12.40;99.90;;;;;;5021593;28;20038;-62
2021/10/14 04:12:46;;;;;;;19.65;7.63;;;12.30;99.90;;;;;;5004146;28;20038;-63
2021/10/14 04:15:12;;;;;;;17.25;7.30;;;12.30;99.90;;;;;;5021838;28;20129;-65
2021/10/14 04:17:37;;;;;;;22.33;8.48;;;12.40;99.90;;;;;;5022630;28;20030;-62
2021/10/14 04:20:04;;;;;;;28.92;8.40;;;12.40;99.90;;;;;;5020128;28;20057;-62
2021/10/14 04:22:29;;;;;;;25.33;8.23;;;12.40;99.90;;;;;;5023761;28;20029;-61
2021/10/14 04:24:55;;;;;;;17.52;7.55;;;12.40;99.90;;;;;;5020354;28;20033;-62
2021/10/14 04:27:21;;;;;;;18.08;7.80;;;12.40;99.90;;;;;;5020944;28;20378;-63
2021/10/14 04:29:46;;;;;;;18.50;8.02;;;12.40;99.90;;;;;;5021742;28;20034;-61
2021/10/14 04:32:13;;;;;;;22.33;8.13;;;12.40;99.90;;;;;;5026106;28;20121;-62
2021/10/14 04:34:39;;;;;;;24.38;8.23;;;12.40;99.90;;;;;;5023582;28;20044;-62
2021/10/14 04:37:06;;;;;;;23.42;8.48;;;12.40;99.90;;;;;;5024875;28;20026;-62
2021/10/14 04:39:33;;;;;;;20.75;8.48;;;12.40;99.90;;;;;;5019155;28;20386;-63
2021/10/14 04:41:59;;;;;;;21.23;7.97;;;12.40;99.90;;;;;;5007243;28;20038;-64
2021/10/14 04:44:24;;;;;;;19.85;7.47;;;12.40;99.90;;;;;;5025794;28;20497;-63
2021/10/14 04:46:50;;;;;;;21.08;8.15;;;12.40;99.90;;;;;;5018672;28;20038;-65
2021/10/14 04:49:16;;;;;;;19.25;7.38;;;12.40;99.90;;;;;;5024664;28;20631;-65
2021/10/14 04:51:42;;;;;;;23.30;8.07;;;12.40;99.90;;;;;;5023510;28;20100;-64
2021/10/14 04:54:08;;;;;;;20.42;8.75;;;12.40;99.90;;;;;;5022772;28;20033;-63
2021/10/14 04:56:33;;;;;;;21.33;8.90;;;12.40;99.90;;;;;;5022307;28;20030;-63
2021/10/14 04:58:59;;;;;;;21.60;9.32;;;12.40;99.90;;;;;;5007990;28;20038;-62
2021/10/14 05:01:24;;;;;;;19.52;7.95;;;12.40;99.90;;;;;;5019780;28;20113;-64
2021/10/14 05:03:50;;;;;;;21.23;7.95;;;12.40;99.90;;;;;;5022075;28;20034;-63
2021/10/14 05:06:15;;;;;;;18.00;7.65;;;12.40;99.90;;;;;;5020774;28;20059;-63
2021/10/14 05:08:41;;;;;;;27.48;8.63;;;12.40;99.90;;;;;;5017734;28;20049;-63
2021/10/14 05:11:11;;;;;;;20.95;8.02;;;12.40;99.90;;;;;;5016803;28;20041;-63
2021/10/14 05:13:37;;;;;;;23.75;9.05;;;12.40;99.90;;;;;;5027064;28;20072;-63
2021/10/14 05:16:03;;;;;;;25.75;9.60;;;12.40;99.90;;;;;;5020020;28;20043;-64
2021/10/14 05:18:28;;;;;;;21.35;9.13;;;12.40;99.90;;;;;;5029311;28;20041;-64
2021/10/14 05:20:54;;;;;;;22.77;8.88;;;12.40;99.90;;;;;;5027271;28;20030;-63
2021/10/14 05:23:19;;;;;;;24.70;8.25;;;12.40;99.90;;;;;;5015242;28;20505;-62
2021/10/14 05:25:45;;;;;;;20.35;8.68;;;12.50;99.90;;;;;;5031908;28;20493;-62
2021/10/14 05:28:11;;;;;;;20.15;8.38;;;12.50;99.90;;;;;;5022442;28;20040;-64
2021/10/14 05:30:36;;;;;;;22.02;9.57;;;12.50;99.90;;;;;;5017219;28;20045;-63
2021/10/14 05:33:02;;;;;;;22.75;7.80;;;12.40;99.90;;;;;;5015072;28;20425;-63
2021/10/14 05:35:28;;;;;;;28.70;8.63;;;12.50;99.90;;;;;;5019445;28;20033;-64
2021/10/14 05:37:53;;;;;;;26.33;9.32;;;12.50;99.90;;;;;;5026747;28;20032;-63
2021/10/14 05:40:19;;;;;;;27.77;8.45;;;12.50;99.90;;;;;;5028292;28;20794;-63
2021/10/14 05:42:45;;;;;;;23.50;8.52;;;12.50;99.90;;;;;;5022744;28;20037;-62
2021/10/14 05:45:10;;;;;;;22.42;8.00;;;12.50;99.90;;;;;;5030417;28;20488;-64
2021/10/14 05:47:36;;;;;;;25.42;9.05;;;12.50;99.90;;;;;;5027900;28;20034;-61
2021/10/14 05:50:02;;;;;;;26.83;8.45;;;12.50;99.90;;;;;;5033099;28;20489;-62
2021/10/14 05:52:28;;;;;;;27.00;9.65;;;12.50;99.90;;;;;;5025046;28;20493;-64
2021/10/14 05:54:55;;;;;;;22.77;8.82;;;12.60;99.90;;;;;;5028172;28;20040;-61
2021/10/14 05:57:21;;;;;;;21.80;8.70;;;12.60;99.90;;;;;;5027715;28;20396;-63
2021/10/14 05:59:46;;;;;;;19.48;8.45;;;12.60;99.90;;;;;;5028167;28;20048;-65
2021/10/14 06:02:12;;;;;;;23.05;9.65;;;12.60;99.90;;;;;;5032715;28;20085;-61
2021/10/14 06:04:37;;;;;;;23.90;8.75;;;12.70;99.90;;;;;;5020010;28;20034;-63
2021/10/14 06:07:03;;;;;;;18.48;8.43;;;12.70;99.90;;;;;;4999769;28;20627;-62
2021/10/14 06:09:29;;;;;;;18.38;8.48;;;12.70;99.90;;;;;;5012253;28;20049;-63
2021/10/14 06:11:54;;;;;;;40.15;10.20;;;12.70;99.90;;;;;;5032258;28;20040;-64
2021/10/14 06:14:20;;;;;;;24.10;8.82;;;12.70;99.90;;;;;;5024490;28;20485;-65
2021/10/14 06:16:45;;;;;;;26.33;8.85;;;12.70;99.90;;;;;;5027352;28;20390;-62
2021/10/14 06:19:11;;;;;;;26.20;10.20;;;12.70;99.90;;;;;;5026355;28;20494;-63
2021/10/14 06:21:37;;;;;;;25.33;9.50;;;12.70;99.90;;;;;;5026354;28;20531;-62
2021/10/14 06:24:03;;;;;;;26.05;9.02;;;12.70;99.90;;;;;;5028499;28;20045;-64
2021/10/14 06:26:29;;;;;;;20.80;9.30;;;12.70;99.90;;;;;;5026059;28;20047;-63
2021/10/14 06:28:55;;;;;;;23.83;9.35;;;12.70;99.90;;;;;;5024289;28;20512;-64
2021/10/14 06:31:20;;;;;;;21.70;8.82;;;12.70;99.90;;;;;;5010178;28;20037;-62
2021/10/14 06:33:46;;;;;;;22.88;8.57;;;12.70;99.90;;;;;;5005722;28;20137;-63
2021/10/14 06:36:11;;;;;;;21.23;8.85;;;12.70;99.90;;;;;;5027593;28;20033;-64
2021/10/14 06:38:37;;;;;;;20.45;8.20;;;12.70;99.90;;;;;;5022067;28;20044;-62
2021/10/14 06:41:03;;;;;;;23.55;7.95;;;12.70;99.90;;;;;;5025659;28;20033;-62
2021/10/14 06:43:28;;;;;;;21.23;8.98;;;12.70;99.90;;;;;;5025396;28;20033;-65
2021/10/14 06:45:54;;;;;;;25.83;8.98;;;12.70;99.90;;;;;;5027988;28;20040;-63
2021/10/14 06:48:19;;;;;;;27.60;10.23;;;12.70;99.90;;;;;;5024075;28;20041;-63
2021/10/14 06:50:46;;;;;;;23.23;9.05;;;12.70;99.90;;;;;;5026969;28;20034;-62
2021/10/14 06:53:13;;;;;;;25.73;9.35;;;12.80;99.90;;;;;;5021741;28;20040;-63
2021/10/14 06:55:40;;;;;;;26.20;9.18;;;12.80;99.90;;;;;;5008648;28;20447;-62
2021/10/14 06:58:05;;;;;;;23.10;8.95;;;12.80;99.90;;;;;;5026372;28;20494;-63
2021/10/14 07:00:31;;;;;;;22.90;8.68;;;12.80;99.90;;;;;;5027555;28;20033;-64
2021/10/14 07:02:57;;;;;;;21.52;8.80;;;12.80;99.90;;;;;;5020419;28;20065;-65
2021/10/14 07:05:23;;;;;;;20.58;8.18;;;12.90;99.90;;;;;;5027466;28;20034;-63
2021/10/14 07:07:48;;;;;;;22.02;8.68;;;12.80;99.90;;;;;;5025728;28;20850;-65
2021/10/14 07:10:15;;;;;;;21.00;8.77;;;12.90;99.90;;;;;;5030791;28;20053;-63
2021/10/14 07:12:41;;;;;;;21.80;8.93;;;12.90;99.90;;;;;;5026352;28;20183;-62
2021/10/14 07:15:08;;;;;;;23.90;8.95;;;12.80;99.90;;;;;;5026837;28;20029;-64
2021/10/14 07:17:34;;;;;;;23.48;8.27;;;12.90;99.90;;;;;;5020336;28;20037;-64
2021/10/14 07:20:00;;;;;;;23.38;9.13;;;12.90;99.90;;;;;;5009391;28;20037;-64
2021/10/14 07:22:26;;;;;;;17.60;7.07;;;12.90;99.90;;;;;;5006832;28;20171;-63
2021/10/14 07:24:51;;;;;;;20.17;8.10;;;12.90;99.90;;;;;;5022734;28;20029;-63
2021/10/14 07:27:17;;;;;;;22.23;8.75;;;12.90;99.90;;;;;;5001047;28;20030;-64
2021/10/14 07:29:43;;;;;;;18.52;8.77;;;13.00;99.90;;;;;;5009009;28;20401;-61
2021/10/14 07:32:09;;;;;;;22.52;8.98;;;13.00;99.90;;;;;;5025723;28;20089;-63
2021/10/14 07:34:35;;;;;;;21.48;8.48;;;13.00;99.90;;;;;;5021717;28;20033;-64
2021/10/14 07:37:02;;;;;;;17.55;7.22;;;13.10;99.90;;;;;;5023741;28;20044;-63
2021/10/14 07:39:28;;;;;;;23.88;8.40;;;13.10;99.90;;;;;;5007945;28;20596;-63
2021/10/14 07:41:53;;;;;;;17.40;7.38;;;13.10;99.90;;;;;;5024127;28;20033;-65
2021/10/14 07:44:19;;;;;;;19.15;7.82;;;13.10;99.90;;;;;;5022360;28;20033;-63
2021/10/14 07:46:45;;;;;;;18.77;8.18;;;13.10;99.90;;;;;;5027210;28;20404;-62
2021/10/14 07:49:13;;;;;;;16.00;7.53;;;13.10;99.90;;;;;;5020105;28;20033;-63
2021/10/14 07:51:39;;;;;;;17.45;7.28;;;13.10;99.90;;;;;;5025435;28;20039;-62
2021/10/14 07:54:05;;;;;;;21.50;8.07;;;13.20;99.90;;;;;;5027132;28;20123;-62
2021/10/14 07:56:32;;;;;;;19.92;7.50;;;13.20;99.90;;;;;;5028076;28;20044;-63
2021/10/14 07:58:58;;;;;;;21.85;7.78;;;13.30;99.90;;;;;;5019455;28;20136;-62
2021/10/14 08:01:23;;;;;;;19.52;7.70;;;13.30;99.90;;;;;;5025427;28;20109;-63
2021/10/14 08:03:49;;;;;;;17.42;7.53;;;13.30;99.90;;;;;;5027246;28;20029;-63
2021/10/14 08:06:15;;;;;;;18.85;7.45;;;13.30;99.90;;;;;;5021288;28;20034;-62
2021/10/14 08:08:41;;;;;;;12.50;6.53;;;13.30;99.90;;;;;;5023496;28;20050;-63
2021/10/14 08:11:07;;;;;;;13.82;6.38;;;13.30;99.90;;;;;;5013027;28;20048;-64
2021/10/14 08:13:34;;;;;;;15.25;7.03;;;13.40;99.90;;;;;;5037865;28;20125;-64
2021/10/14 08:16:00;;;;;;;16.75;6.55;;;13.40;99.90;;;;;;5040063;28;20080;-62
2021/10/14 08:18:27;;;;;;;15.25;6.25;;;13.40;99.90;;;;;;5037370;28;20042;-64
2021/10/14 08:20:54;;;;;;;14.23;6.38;;;13.50;99.90;;;;;;5039221;28;20148;-63
2021/10/14 08:23:25;;;;;;;16.02;6.30;;;13.50;99.90;;;;;;5029032;28;20024;-63
2021/10/14 08:25:50;;;;;;;;;;;13.60;99.90;;;;;;5026046;28;20039;-63
2021/10/14 08:28:16;;;;;;;14.95;5.88;;;13.60;99.90;;;;;;5017827;28;19917;-62
2021/10/14 08:30:42;;;;;;;14.77;5.78;;;13.70;99.90;;;;;;5030020;28;20095;-62
2021/10/14 08:33:08;;;;;;;15.07;6.40;;;13.70;99.90;;;;;;5005065;28;20030;-63
2021/10/14 08:35:37;;;;;;;16.92;5.85;;;13.80;99.90;;;;;;5024092;28;20100;-63
2021/10/14 08:38:05;;;;;;;16.77;6.28;;;13.80;99.90;;;;;;5028641;28;20029;-62
2021/10/14 08:40:31;;;;;;;15.68;5.55;;;13.90;99.90;;;;;;5027753;28;20036;-63
2021/10/14 08:43:06;;;;;;;13.35;5.30;;;13.90;99.90;;;;;;5025964;28;20017;-64
2021/10/14 08:45:36;;;;;;;12.88;5.53;;;13.90;99.90;;;;;;5027013;28;20772;-62
2021/10/14 08:48:03;;;;;;;22.13;6.15;;;13.90;99.90;;;;;;5022804;28;20076;-63
2021/10/14 08:50:30;;;;;;;12.80;5.40;;;13.90;99.90;;;;;;5021938;28;20045;-63
2021/10/14 08:52:56;;;;;;;22.30;7.32;;;13.90;99.90;;;;;;5029802;28;20879;-62
2021/10/14 08:55:21;;;;;;;16.65;6.13;;;14.00;99.90;;;;;;5028378;28;20030;-62
2021/10/14 08:57:47;;;;;;;15.25;6.28;;;13.90;99.90;;;;;;5025872;28;20030;-64
2021/10/14 09:00:13;;;;;;;16.27;5.45;;;14.10;99.90;;;;;;5025068;28;20504;-64
2021/10/14 09:02:41;;;;;;;13.95;6.20;;;14.10;99.90;;;;;;5026744;28;20033;-62
2021/10/14 09:05:09;;;;;;;13.35;5.75;;;14.10;99.90;;;;;;5030460;28;20034;-65
2021/10/14 09:07:36;;;;;;;19.60;6.68;;;14.10;99.90;;;;;;5022459;28;20029;-64
2021/10/14 09:10:12;;;;;;;16.83;6.45;;;14.30;99.90;;;;;;5027806;28;20025;-62
2021/10/14 09:12:40;;;;;;;15.02;7.00;;;14.30;99.90;;;;;;5026315;28;20037;-63
2021/10/14 09:15:11;;;;;;;13.98;6.43;;;14.30;99.90;;;;;;5028498;28;20092;-62
2021/10/14 09:17:37;;;;;;;14.25;6.97;;;14.40;99.90;;;;;;5029901;28;20053;-63
2021/10/14 09:20:31;;;;;;;13.82;6.53;;;14.50;99.90;;;;;;5029627;28;20041;-63
2021/10/14 09:22:57;;;;;;;13.63;6.13;;;14.60;99.90;;;;;;5031170;28;20041;-63
2021/10/14 09:25:34;;;;;;;14.48;6.68;;;14.70;99.90;;;;;;5030533;28;20078;-63
2021/10/14 09:28:14;;;;;;;14.68;5.82;;;14.90;99.90;;;;;;5022416;28;20033;-62
2021/10/14 09:30:54;;;;;;;13.32;5.53;;;15.00;99.90;;;;;;5026490;28;20046;-63
2021/10/14 09:33:31;;;;;;;15.10;5.80;;;15.10;99.90;;;;;;5026424;28;20040;-62
2021/10/14 09:36:22;;;;;;;14.20;5.97;;;15.10;99.90;;;;;;5023659;28;20033;-61
2021/10/14 09:38:51;;;;;;;14.52;6.00;;;15.10;99.90;;;;;;5020191;28;20512;-63
2021/10/14 09:41:19;;;;;;;14.48;6.55;;;15.20;99.90;;;;;;5000631;28;20099;-61
2021/10/14 09:43:51;;;;;;;13.73;5.85;;;15.20;99.90;;;;;;5007527;28;20485;-63
2021/10/14 09:46:35;;;;;;;16.20;6.22;;;15.20;99.90;;;;;;5017330;28;20034;-62
2021/10/14 09:49:02;;;;;;;17.33;6.63;;;15.20;99.90;;;;;;5028135;28;20033;-62
2021/10/14 09:51:28;;;;;;;17.02;5.75;;;15.20;99.90;;;;;;5030111;28;20501;-63
2021/10/14 09:53:54;;;;;;;14.65;5.60;;;15.20;99.90;;;;;;5028448;28;20104;-63
2021/10/14 09:56:20;;;;;;;12.07;6.32;;;15.10;99.90;;;;;;5026012;28;20033;-62
2021/10/14 09:58:46;;;;;;;14.85;6.65;;;15.00;99.90;;;;;;5024811;28;20486;-63
2021/10/14 10:01:12;;;;;;;15.05;6.15;;;15.00;99.90;;;;;;5010715;28;20057;-63
2021/10/14 10:03:40;;;;;;;12.73;6.35;;;14.90;99.90;;;;;;5023166;28;20045;-62
2021/10/14 10:06:07;;;;;;;14.25;6.50;;;14.90;99.90;;;;;;5026715;28;20079;-64
2021/10/14 10:08:38;;;;;;;13.00;6.25;;;15.00;99.90;;;;;;5026205;28;20038;-62
2021/10/14 10:11:08;;;;;;;11.85;5.40;;;15.00;99.90;;;;;;5026648;28;20077;-64
2021/10/14 10:13:38;;;;;;;20.13;5.43;;;15.00;99.90;;;;;;5024157;28;20034;-62
2021/10/14 10:16:18;;;;;;;15.30;5.97;;;15.00;99.90;;;;;;5021475;28;20272;-64
2021/10/14 10:18:55;;;;;;;12.18;4.97;;;15.20;99.90;;;;;;5027801;28;20743;-63
2021/10/14 10:21:32;;;;;;;10.70;4.72;;;15.30;99.90;;;;;;5026517;28;20033;-63
2021/10/14 10:24:20;;;;;;;20.55;5.88;;;15.20;99.90;;;;;;5025173;28;20076;-63
2021/10/14 10:26:46;;;;;;;13.05;5.75;;;15.30;99.90;;;;;;5019626;28;20041;-63
2021/10/14 10:29:14;;;;;;;18.00;6.35;;;15.20;99.90;;;;;;5026397;28;20091;-62
2021/10/14 10:31:49;;;;;;;13.80;5.07;;;15.20;99.90;;;;;;5022486;28;20160;-63
2021/10/14 10:34:40;;;;;;;10.80;5.07;;;15.20;99.90;;;;;;5002984;28;20490;-64
2021/10/14 10:37:40;;;;;;;12.35;4.82;;;15.20;99.90;;;;;;5002106;28;20041;-63
2021/10/14 10:40:10;;;;;;;;;;;15.20;99.90;;;;;;5027954;28;20040;-63
2021/10/14 10:42:41;;;;;;;7.55;3.70;;;15.30;99.90;;;;;;5011040;28;19925;-64
2021/10/14 10:45:17;;;;;;;7.28;3.90;;;15.50;99.90;;;;;;5020752;28;20072;-63
2021/10/14 10:47:54;;;;;;;8.48;3.10;;;15.50;99.90;;;;;;5026933;28;20125;-64
2021/10/14 10:50:23;;;;;;;9.40;3.15;;;15.70;99.90;;;;;;5024640;28;20049;-63
2021/10/14 10:53:32;;;;;;;4.75;2.45;;;15.80;99.90;;;;;;5024261;28;20751;-63
2021/10/14 10:55:59;;;;;;;5.68;2.33;;;15.80;99.90;;;;;;4964940;28;20068;-63
2021/10/14 10:58:31;;;;;;;5.28;2.20;;;15.90;99.90;;;;;;5027478;28;20029;-63
2021/10/14 11:00:57;;;;;;;4.75;1.80;;;15.90;99.90;;;;;;5028855;28;20073;-62
2021/10/14 11:03:27;;;;;;;3.88;1.42;;;16.00;99.90;;;;;;5027056;28;20037;-64
2021/10/14 11:05:55;;;;;;;4.28;1.10;;;16.10;99.90;;;;;;5030583;28;20025;-63
2021/10/14 11:08:32;;;;;;;3.75;0.85;;;16.20;99.90;;;;;;5014374;28;20790;-63
2021/10/14 11:11:11;;;;;;;3.97;0.80;;;16.20;99.90;;;;;;5029205;28;20511;-63
2021/10/14 11:13:39;;;;;;;1.50;0.88;;;16.30;99.90;;;;;;5026512;28;20172;-63
2021/10/14 11:16:07;;;;;;;2.78;1.08;;;16.20;99.90;;;;;;5028913;28;20045;-63
2021/10/14 11:18:35;;;;;;;5.30;1.05;;;16.20;99.90;;;;;;5024750;28;20112;-61
2021/10/14 11:21:04;;;;;;;4.15;1.40;;;16.20;99.90;;;;;;5020935;28;20038;-63
2021/10/14 11:23:41;;;;;;;5.97;1.73;;;16.20;99.90;;;;;;5022189;28;20040;-64
2021/10/14 11:26:18;;;;;;;1.58;0.80;;;16.10;99.90;;;;;;5030150;28;20099;-63
2021/10/14 11:28:50;;;;;;;2.10;0.93;;;16.00;99.90;;;;;;5007566;28;20053;-61
2021/10/14 11:31:36;;;;;;;2.83;1.50;;;15.90;99.90;;;;;;5024027;28;20033;-62
2021/10/14 11:34:17;;;;;;;3.67;1.25;;;15.80;99.90;;;;;;5010706;28;20037;-64
2021/10/14 11:37:02;;;;;;;;;;;15.90;99.90;;;;;;5026721;28;20124;-63
2021/10/14 11:39:48;;;;;;;2.63;1.10;;;15.80;99.90;;;;;;5031418;28;19925;-63
2021/10/14 11:42:23;;;;;;;2.67;0.95;;;15.80;99.90;;;;;;5029804;28;20117;-63
2021/10/14 11:44:56;;;;;;;2.78;1.15;;;15.90;99.90;;;;;;5032136;28;20033;-64
2021/10/14 11:47:24;;;;;;;4.85;0.90;;;16.00;99.90;;;;;;5024207;28;20039;-63
2021/10/14 11:50:07;;;;;;;4.25;1.00;;;16.20;99.90;;;;;;5030149;28;20048;-63
2021/10/14 11:52:33;;;;;;;1.02;0.60;;;16.20;99.90;;;;;;5032212;28;20041;-62
2021/10/14 11:55:04;;;;;;;3.08;1.00;;;16.20;99.90;;;;;;5023022;28;20560;-63
2021/10/14 11:57:30;;;;;;;;;;;16.10;99.90;;;;;;5027192;28;20064;-62
2021/10/14 11:59:56;;;;;;;5.10;1.25;;;16.00;99.90;;;;;;5017360;28;19921;-62
2021/10/14 12:02:23;;;;;;;2.50;0.90;;;16.00;99.90;;;;;;5032535;28;20091;-63
2021/10/14 12:04:51;;;;;;;1.42;0.70;;;16.10;99.90;;;;;;5006949;28;20059;-62
2021/10/14 12:07:18;;;;;;;4.97;1.10;;;16.00;99.90;;;;;;5025427;28;20037;-64
2021/10/14 12:09:44;;;;;;;4.15;0.95;;;16.10;99.90;;;;;;5031837;28;20040;-62
2021/10/14 12:12:15;;;;;;;2.50;1.45;;;16.10;99.90;;;;;;5025803;28;20088;-61
2021/10/14 12:14:41;;;;;;;3.80;1.13;;;16.10;99.90;;;;;;5027132;28;20046;-62
2021/10/14 12:17:15;;;;;;;4.90;0.90;;;16.10;99.90;;;;;;5032045;28;20030;-62
2021/10/14 12:19:48;;;;;;;4.85;1.38;;;16.10;99.90;;;;;;5032340;28;20132;-62
2021/10/14 12:22:22;;;;;;;4.32;0.80;;;16.10;99.90;;;;;;5025120;28;20038;-61
2021/10/14 12:24:58;;;;;;;3.78;1.00;;;16.20;99.90;;;;;;5031904;28;20038;-62
2021/10/14 12:27:44;;;;;;;3.55;0.88;;;16.10;99.90;;;;;;5026941;28;20029;-62
2021/10/14 12:30:22;;;;;;;2.47;0.90;;;16.10;99.90;;;;;;5029239;28;20049;-62
2021/10/14 12:32:48;;;;;;;13.73;1.20;;;16.10;99.90;;;;;;5027406;28;20053;-62
2021/10/14 12:35:15;;;;;;;3.17;0.93;;;16.10;99.90;;;;;;5028944;28;20120;-62
2021/10/14 12:37:41;;;;;;;2.30;0.90;;;16.00;99.90;;;;;;5028805;28;20037;-62
2021/10/14 12:40:20;;;;;;;2.97;0.60;;;16.10;99.90;;;;;;5029490;28;20060;-62
2021/10/14 12:45:31;;;;;;;2.53;0.70;;;16.10;99.90;;;;;;5027523;28;20052;-63
2021/10/14 12:48:33;;;;;;;2.00;0.77;;;16.10;99.90;;;;;;5011049;28;20037;-63